Matias Olimpio, Brazil
Current Conditions -  °F | °C
As of 8:00 PM on Tuesday 27 Jan 2015 (Local Time) from SBPB Reporting Station
Few Clouds Few Clouds  
Wind Chill: 84°   Ceiling: Unl
Heat Index: 92°   Visibility: 6mi
Dew Point: 75°   Wind: 18mph
Humidity: 74%   Direction: 60°ENE
Pressure: 29.85"   Gusts: NA
Location:  3.72°S, 42.55°W
Report Text: SBPB 272300Z 06016KT 9999 FEW020 29/24 Q1011
Loading
Personal Weather Stations






























Interactive Weather Map New forecast layout! Learn more

10-Day Weather Forecast

Advertisements
Track Severe Weather on mobile